Time;durP1;ratioP1;P1;durP2;ratioP2;P2;SDS_P1;SDS_P2;PMS_P1;PMS_P2;Temp;Humidity;BMP_temperature;BMP_pressure;BME280_temperature;BME280_humidity;BME280_pressure;Samples;Min_cycle;Max_cycle;Signal;HPM_P1;HPM_P2
2023/05/02 00:01:36;;;;;;;33.90;22.13;;;;;;;10.36;100.00;101885.00;5071273;28;20445;-51
2023/05/02 00:04:02;;;;;;;34.55;23.00;;;;;;;10.30;100.00;101887.78;5071271;28;20043;-52
2023/05/02 00:06:30;;;;;;;33.00;21.95;;;;;;;10.26;100.00;101885.84;5071421;28;20020;-52
2023/05/02 00:08:55;;;;;;;32.97;22.60;;;;;;;10.24;100.00;101899.13;5071223;28;20033;-53
2023/05/02 00:11:21;;;;;;;33.15;21.48;;;;;;;10.22;100.00;101901.34;5071165;28;20028;-55
2023/05/02 00:13:47;;;;;;;33.08;21.02;;;;;;;10.14;100.00;101900.78;5071405;28;20028;-52
2023/05/02 00:16:12;;;;;;;31.80;20.80;;;;;;;10.08;100.00;101898.28;5071116;28;20031;-53
2023/05/02 00:18:38;;;;;;;31.65;20.67;;;;;;;10.07;100.00;101902.16;5071124;28;20017;-52
2023/05/02 00:21:03;;;;;;;32.78;20.90;;;;;;;10.09;100.00;101908.25;5069924;28;20400;-53
2023/05/02 00:23:28;;;;;;;30.33;20.45;;;;;;;10.03;100.00;101896.38;5069807;28;20060;-51
2023/05/02 00:25:54;;;;;;;30.63;20.55;;;;;;;10.05;100.00;101905.22;5069719;28;20396;-53
2023/05/02 00:28:19;;;;;;;31.15;20.25;;;;;;;9.95;100.00;101905.22;5070837;28;20060;-52
2023/05/02 00:30:45;;;;;;;31.25;20.40;;;;;;;9.95;100.00;101917.13;5071355;28;20111;-52
2023/05/02 00:33:12;;;;;;;33.60;21.15;;;;;;;9.92;100.00;101914.06;5070822;28;20025;-48
2023/05/02 00:35:37;;;;;;;30.90;19.38;;;;;;;9.88;100.00;101908.25;5071116;28;20069;-53
2023/05/02 00:38:02;;;;;;;30.83;19.63;;;;;;;9.89;100.00;101903.56;5071201;28;20020;-52
2023/05/02 00:40:28;;;;;;;33.97;20.05;;;;;;;9.92;100.00;101911.31;5071229;28;20029;-50
2023/05/02 00:42:53;;;;;;;33.47;22.23;;;;;;;9.91;100.00;101906.88;5070972;28;20035;-52
2023/05/02 00:45:18;;;;;;;32.35;20.23;;;;;;;9.90;100.00;101919.88;5071095;28;20146;-53
2023/05/02 00:47:44;;;;;;;34.17;22.42;;;;;;;9.84;100.00;101918.22;5069081;28;20457;-51
2023/05/02 00:50:09;;;;;;;33.22;21.90;;;;;;;9.84;100.00;101907.16;5070950;28;20048;-50
2023/05/02 00:52:36;;;;;;;30.90;20.92;;;;;;;9.87;100.00;101906.59;5070847;28;20032;-53
2023/05/02 00:55:02;;;;;;;32.78;22.20;;;;;;;9.90;100.00;101917.09;5070876;28;20029;-50
2023/05/02 00:57:27;;;;;;;34.20;21.73;;;;;;;9.88;100.00;101910.19;5070935;28;20108;-53
2023/05/02 00:59:53;;;;;;;31.80;20.67;;;;;;;9.75;100.00;101908.81;5070984;28;20065;-53
2023/05/02 01:02:32;;;;;;;30.73;20.77;;;;;;;9.71;100.00;101927.03;5070920;28;20491;-52
2023/05/02 01:05:09;;;;;;;28.83;19.42;;;;;;;9.55;100.00;101912.34;5071070;28;20063;-54
2023/05/02 01:08:09;;;;;;;29.10;19.35;;;;;;;9.55;100.00;101915.94;5069493;28;20025;-51
2023/05/02 01:10:35;;;;;;;27.48;18.27;;;;;;;9.58;100.00;101915.41;5071121;28;20064;-53
2023/05/02 01:13:19;;;;;;;26.98;17.50;;;;;;;9.64;100.00;101921.75;5070704;28;20048;-51
2023/05/02 01:15:47;;;;;;;27.77;17.88;;;;;;;9.62;100.00;101918.47;5070896;28;20132;-56
2023/05/02 01:18:17;;;;;;;25.90;17.23;;;;;;;9.53;100.00;101912.63;5070844;28;20391;-53
2023/05/02 01:20:45;;;;;;;26.38;17.33;;;;;;;9.59;100.00;101914.28;5070804;28;20058;-52
2023/05/02 01:23:28;;;;;;;28.98;18.13;;;;;;;9.57;100.00;101912.91;5070840;28;20033;-51
2023/05/02 01:26:20;;;;;;;29.48;18.17;;;;;;;9.56;100.00;101905.72;5070821;28;20036;-49
2023/05/02 01:28:59;;;;;;;28.67;18.35;;;;;;;9.54;100.00;101916.22;5070767;28;20076;-52
2023/05/02 01:31:27;;;;;;;27.05;17.60;;;;;;;9.54;100.00;101917.06;5070595;28;20032;-51
2023/05/02 01:33:55;;;;;;;28.55;17.83;;;;;;;9.44;100.00;101915.09;5070672;28;20040;-52
2023/05/02 01:36:24;;;;;;;27.65;18.13;;;;;;;9.40;100.00;101922.25;5070823;28;20028;-50
2023/05/02 01:38:50;;;;;;;28.23;18.25;;;;;;;9.38;100.00;101924.47;5070657;28;20028;-51
2023/05/02 01:41:17;;;;;;;27.95;18.02;;;;;;;9.34;100.00;101918.66;5070519;28;20070;-53
2023/05/02 01:43:44;;;;;;;28.48;18.65;;;;;;;9.28;100.00;101927.19;5069000;28;20078;-49
2023/05/02 01:46:12;;;;;;;26.92;18.60;;;;;;;9.32;100.00;101923.59;5070370;28;20448;-52
2023/05/02 01:48:40;;;;;;;27.60;17.70;;;;;;;9.33;100.00;101922.50;5070432;28;20032;-52
2023/05/02 01:51:07;;;;;;;26.88;18.13;;;;;;;9.37;100.00;101928.31;5070295;28;20546;-52
2023/05/02 01:53:34;;;;;;;29.67;18.77;;;;;;;9.33;100.00;101922.50;5069104;28;20029;-53
2023/05/02 01:56:00;;;;;;;30.02;19.13;;;;;;;9.35;100.00;101931.38;5070519;28;20492;-51
2023/05/02 01:58:29;;;;;;;29.70;19.58;;;;;;;9.31;100.00;101932.19;5070958;28;20078;-50
2023/05/02 02:00:58;;;;;;;29.48;19.05;;;;;;;9.37;100.00;101939.38;5072653;28;20039;-50
2023/05/02 02:03:23;;;;;;;29.48;19.15;;;;;;;9.40;100.00;101938.00;5073947;28;20035;-52
2023/05/02 02:05:51;;;;;;;28.83;19.35;;;;;;;9.37;100.00;101939.38;5073981;28;20028;-50
2023/05/02 02:08:17;;;;;;;30.20;20.42;;;;;;;9.36;100.00;101946.84;5073875;28;20111;-49
2023/05/02 02:10:45;;;;;;;30.55;20.52;;;;;;;9.47;100.00;101938.59;5073717;28;20174;-48
2023/05/02 02:13:24;;;;;;;32.92;20.98;;;;;;;9.46;100.00;101950.72;5073998;28;20051;-52
2023/05/02 02:15:56;;;;;;;32.35;22.10;;;;;;;9.48;100.00;101949.34;5073585;28;20060;-49
2023/05/02 02:18:25;;;;;;;31.05;20.67;;;;;;;9.47;100.00;101952.41;5072157;28;20044;-53
2023/05/02 02:20:52;;;;;;;31.45;21.60;;;;;;;9.45;100.00;101949.06;5073266;28;20035;-52
2023/05/02 02:23:19;;;;;;;32.17;20.92;;;;;;;9.44;100.00;101950.16;5073497;28;20059;-51
2023/05/02 02:25:45;;;;;;;30.75;21.35;;;;;;;9.45;100.00;101954.59;5073318;28;20474;-50
2023/05/02 02:28:10;;;;;;;32.35;22.67;;;;;;;9.49;100.00;101967.59;5073357;28;20052;-52
2023/05/02 02:30:36;;;;;;;31.55;21.80;;;;;;;9.54;100.00;101965.97;5073093;28;20028;-51
2023/05/02 02:33:01;;;;;;;30.38;21.13;;;;;;;9.49;100.00;101959.31;5073023;28;20048;-51
2023/05/02 02:35:34;;;;;;;32.47;21.80;;;;;;;9.43;100.00;101963.16;5073037;28;20025;-52
2023/05/02 02:38:19;;;;;;;33.17;21.80;;;;;;;9.42;100.00;101963.41;5073206;28;20476;-49
2023/05/02 02:41:05;;;;;;;32.95;22.45;;;;;;;9.42;100.00;101960.66;5071418;28;20025;-53
2023/05/02 02:43:43;;;;;;;30.95;21.08;;;;;;;9.45;100.00;101966.47;5072782;28;20043;-53
2023/05/02 02:46:39;;;;;;;34.13;21.52;;;;;;;9.46;100.00;101976.41;5072721;28;20392;-52
2023/05/02 02:49:32;;;;;;;32.33;22.27;;;;;;;9.46;100.00;101968.13;5072575;28;20488;-51
2023/05/02 02:52:20;;;;;;;30.42;21.10;;;;;;;9.48;100.00;101974.22;5072687;28;20017;-52
2023/05/02 02:54:57;;;;;;;28.88;19.90;;;;;;;9.50;100.00;101972.00;5072638;28;20028;-50
2023/05/02 02:58:04;;;;;;;31.05;22.02;;;;;;;9.60;100.00;101973.16;5072516;28;20096;-52
2023/05/02 03:00:32;;;;;;;31.50;22.60;;;;;;;9.50;100.00;101972.00;5050145;28;20052;-51
2023/05/02 03:02:57;;;;;;;30.38;20.33;;;;;;;9.52;100.00;101977.25;5050325;28;20167;-52
2023/05/02 03:05:22;;;;;;;29.60;21.20;;;;;;;9.58;100.00;101978.09;5061249;28;20391;-52
2023/05/02 03:07:48;;;;;;;29.30;20.92;;;;;;;9.56;100.00;101991.34;5072585;28;20033;-48
2023/05/02 03:10:13;;;;;;;29.27;20.88;;;;;;;9.58;100.00;101989.16;5072199;28;20025;-53
2023/05/02 03:12:39;;;;;;;30.20;20.55;;;;;;;9.60;100.00;101990.53;5072427;28;20119;-52
2023/05/02 03:15:42;;;;;;;29.25;20.55;;;;;;;9.59;100.00;102001.88;5072058;28;20036;-52
2023/05/02 03:18:07;;;;;;;31.25;19.75;;;;;;;9.59;100.00;101991.63;5061814;28;20040;-49
2023/05/02 03:20:32;;;;;;;30.95;20.67;;;;;;;9.59;100.00;101997.16;5072397;28;20033;-51
2023/05/02 03:22:58;;;;;;;32.88;22.00;;;;;;;9.56;100.00;102011.53;5072194;28;20024;-52
2023/05/02 03:25:23;;;;;;;30.65;21.20;;;;;;;9.53;100.00;102006.53;5072384;28;20020;-48
2023/05/02 03:27:48;;;;;;;30.85;21.25;;;;;;;9.57;100.00;102007.69;5070692;28;20051;-51
2023/05/02 03:30:14;;;;;;;30.77;21.58;;;;;;;9.51;100.00;102019.78;5072027;28;20021;-49
2023/05/02 03:32:39;;;;;;;33.22;19.50;;;;;;;9.48;100.00;102028.63;5071993;28;20056;-49
2023/05/02 03:35:05;;;;;;;29.42;18.20;;;;;;;9.32;100.00;102034.06;5071883;28;20037;-50
2023/05/02 03:37:30;;;;;;;24.05;16.05;;;;;;;9.28;100.00;102037.63;5071978;28;20020;-52
2023/05/02 03:39:55;;;;;;;27.88;17.58;;;;;;;9.21;100.00;102044.25;5071662;28;20433;-53
2023/05/02 03:42:21;;;;;;;24.02;16.50;;;;;;;9.12;100.00;102043.09;5070058;28;20108;-52
2023/05/02 03:44:46;;;;;;;24.30;16.80;;;;;;;9.10;100.00;102039.75;5071525;28;20064;-49
2023/05/02 03:47:12;;;;;;;26.27;16.13;;;;;;;9.11;100.00;102044.19;5071624;28;20032;-54
2023/05/02 03:49:39;;;;;;;24.10;15.95;;;;;;;9.08;100.00;102041.94;5071859;28;20025;-50
2023/05/02 03:52:04;;;;;;;25.13;15.43;;;;;;;9.05;100.00;102040.56;5071736;28;20103;-52
2023/05/02 03:54:32;;;;;;;25.60;16.30;;;;;;;9.04;100.00;102046.34;5070178;28;20386;-52
2023/05/02 03:56:58;;;;;;;26.80;16.63;;;;;;;9.04;100.00;102046.34;5071603;28;20056;-52
2023/05/02 03:59:23;;;;;;;23.75;15.50;;;;;;;9.06;100.00;102049.69;5071718;28;20044;-50
2023/05/02 04:01:49;;;;;;;23.58;15.93;;;;;;;9.05;100.00;102053.53;5071607;28;20024;-51
2023/05/02 04:04:15;;;;;;;24.02;15.35;;;;;;;8.98;100.00;102053.75;5071579;28;20067;-51
2023/05/02 04:06:40;;;;;;;24.33;14.55;;;;;;;9.00;100.00;102065.38;5071554;28;20429;-52
2023/05/02 04:09:06;;;;;;;23.85;14.20;;;;;;;9.00;100.00;102073.66;5071506;28;20452;-52
2023/05/02 04:11:31;;;;;;;22.40;13.10;;;;;;;8.95;100.00;102083.81;5071197;28;20502;-52
2023/05/02 04:13:56;;;;;;;20.52;13.10;;;;;;;8.92;100.00;102090.72;5070942;28;20013;-52
2023/05/02 04:16:22;;;;;;;19.63;11.90;;;;;;;8.81;100.00;102097.25;5071232;28;20025;-50
2023/05/02 04:18:47;;;;;;;21.50;12.65;;;;;;;8.77;100.00;102085.06;5071215;28;20028;-50
2023/05/02 04:21:12;;;;;;;21.15;12.07;;;;;;;8.68;100.00;102091.06;5070582;28;20036;-51
2023/05/02 04:23:38;;;;;;;18.58;11.40;;;;;;;8.61;100.00;102084.94;5069751;28;20067;-50
2023/05/02 04:26:05;;;;;;;18.20;11.20;;;;;;;8.59;100.00;102098.16;5071224;28;20129;-52
2023/05/02 04:28:30;;;;;;;18.17;10.68;;;;;;;8.55;100.00;102094.25;5071122;28;20055;-49
2023/05/02 04:30:56;;;;;;;17.73;10.85;;;;;;;8.54;100.00;102106.38;5071147;28;20029;-50
2023/05/02 04:33:22;;;;;;;16.75;10.10;;;;;;;8.53;100.00;102107.47;5069732;28;20475;-50
2023/05/02 04:35:48;;;;;;;18.35;9.40;;;;;;;8.51;100.00;102117.94;5071188;28;20427;-52
2023/05/02 04:38:14;;;;;;;18.10;10.10;;;;;;;8.50;100.00;102117.09;5071095;28;20025;-52
2023/05/02 04:40:39;;;;;;;18.45;10.35;;;;;;;8.51;100.00;102123.44;5070997;28;20423;-53
2023/05/02 04:43:05;;;;;;;18.75;10.10;;;;;;;8.43;100.00;102135.75;5071141;28;20032;-51
2023/05/02 04:45:31;;;;;;;22.00;10.20;;;;;;;8.46;100.00;102128.88;5071050;28;20032;-50
2023/05/02 04:47:56;;;;;;;21.08;9.90;;;;;;;8.51;100.00;102128.97;5071011;28;20491;-52
2023/05/02 04:50:21;;;;;;;16.90;10.05;;;;;;;8.55;100.00;102132.84;5071014;28;20139;-52
2023/05/02 04:52:47;;;;;;;17.95;9.90;;;;;;;8.55;100.00;102133.69;5071084;28;20024;-50
2023/05/02 04:55:12;;;;;;;20.70;9.90;;;;;;;8.55;100.00;102133.69;5069451;28;20036;-50
2023/05/02 04:57:38;;;;;;;20.38;9.82;;;;;;;8.65;100.00;102145.94;5071064;28;20032;-52
2023/05/02 05:00:05;;;;;;;19.45;9.73;;;;;;;8.69;100.00;102149.84;5071347;28;20476;-53
2023/05/02 05:02:30;;;;;;;19.30;10.45;;;;;;;8.74;99.58;102160.91;5071062;28;20021;-52
2023/05/02 05:04:55;;;;;;;18.58;9.98;;;;;;;8.72;99.63;102161.19;5070748;28;20115;-52
2023/05/02 05:07:21;;;;;;;18.77;10.05;;;;;;;8.78;99.76;102170.34;5070801;28;20029;-50
2023/05/02 05:09:46;;;;;;;18.10;9.95;;;;;;;8.83;98.63;102162.09;5070740;28;20127;-52
2023/05/02 05:12:12;;;;;;;18.58;9.73;;;;;;;8.87;98.22;102162.41;5070694;28;20035;-51
2023/05/02 05:14:37;;;;;;;16.88;9.80;;;;;;;8.81;97.35;102169.00;5070539;28;20060;-51
2023/05/02 05:17:02;;;;;;;18.98;9.73;;;;;;;8.77;97.44;102179.72;5070842;28;20082;-52
2023/05/02 05:19:28;;;;;;;17.73;9.68;;;;;;;8.72;96.88;102186.03;5070547;28;20349;-52
2023/05/02 05:21:53;;;;;;;16.13;9.45;;;;;;;8.76;95.96;102175.28;5069289;28;20486;-51
2023/05/02 05:24:19;;;;;;;18.80;9.60;;;;;;;8.75;95.86;102173.63;5070740;28;20049;-50
2023/05/02 05:26:44;;;;;;;18.52;9.25;;;;;;;8.74;94.92;102188.50;5069067;28;20091;-52
2023/05/02 05:29:09;;;;;;;16.30;9.50;;;;;;;8.68;93.23;102186.81;5070804;28;20025;-51
2023/05/02 05:31:35;;;;;;;18.48;9.20;;;;;;;8.69;92.98;102188.47;5070683;28;20028;-50
2023/05/02 05:34:01;;;;;;;19.48;10.00;;;;;;;8.73;93.14;102193.22;5073541;28;20067;-51
2023/05/02 05:36:26;;;;;;;18.17;9.38;;;;;;;8.72;92.29;102196.22;5074291;28;20036;-52
2023/05/02 05:38:52;;;;;;;16.50;9.25;;;;;;;8.81;91.38;102204.84;5074253;28;20116;-52
2023/05/02 05:41:17;;;;;;;17.63;9.57;;;;;;;8.85;91.22;102201.31;5072800;28;20024;-50
2023/05/02 05:43:42;;;;;;;18.75;9.30;;;;;;;8.86;91.01;102205.75;5074139;28;20056;-50
2023/05/02 05:46:08;;;;;;;17.05;9.40;;;;;;;8.88;91.22;102206.28;5074221;28;20430;-52
2023/05/02 05:48:33;;;;;;;16.15;9.00;;;;;;;8.91;90.39;102204.97;5074048;28;20032;-49
2023/05/02 05:51:03;;;;;;;20.10;9.93;;;;;;;8.89;89.92;102209.91;5073835;28;20028;-50
2023/05/02 05:53:28;;;;;;;18.55;9.65;;;;;;;8.80;90.01;102236.31;5073955;28;20029;-50
2023/05/02 05:55:53;;;;;;;16.63;9.52;;;;;;;8.68;90.54;102226.25;5073792;28;20788;-49
2023/05/02 05:58:19;;;;;;;16.00;9.60;;;;;;;8.66;91.05;102224.84;5072478;28;20033;-51
2023/05/02 06:00:44;;;;;;;18.38;10.68;;;;;;;8.66;91.03;102230.38;5073732;28;20417;-51
2023/05/02 06:03:10;;;;;;;19.05;9.40;;;;;;;8.59;90.65;102225.03;5072430;28;20025;-51
2023/05/02 06:05:35;;;;;;;15.10;9.07;;;;;;;8.68;90.91;102233.69;5073693;28;20520;-51
2023/05/02 06:08:01;;;;;;;16.55;9.82;;;;;;;8.72;91.54;102227.41;5073892;28;20025;-52
2023/05/02 06:10:26;;;;;;;17.42;10.05;;;;;;;8.83;91.13;102238.56;5073809;28;20024;-52
2023/05/02 06:12:51;;;;;;;18.25;9.38;;;;;;;8.98;91.04;102241.44;5073568;28;20024;-52
2023/05/02 06:15:17;;;;;;;19.08;9.50;;;;;;;9.05;90.48;102249.53;5073567;28;20036;-53
2023/05/02 06:17:42;;;;;;;21.83;9.82;;;;;;;9.12;90.18;102250.16;5073841;28;20115;-50
2023/05/02 06:20:08;;;;;;;17.95;9.27;;;;;;;9.25;89.94;102246.13;5073591;28;20029;-52
2023/05/02 06:22:34;;;;;;;18.33;9.57;;;;;;;9.34;89.95;102255.59;5073465;28;20029;-50
2023/05/02 06:25:00;;;;;;;17.80;9.38;;;;;;;9.42;89.61;102259.81;5073364;28;20531;-52
2023/05/02 06:27:25;;;;;;;19.58;9.90;;;;;;;9.32;89.96;102262.47;5071719;28;20131;-52
2023/05/02 06:29:51;;;;;;;17.67;9.52;;;;;;;9.20;90.41;102265.41;5073283;28;20025;-49
2023/05/02 06:32:17;;;;;;;15.73;9.20;;;;;;;9.17;90.48;102275.03;5073397;28;20059;-49
2023/05/02 06:34:42;;;;;;;19.75;9.82;;;;;;;9.09;90.87;102267.22;5073333;28;20048;-49
2023/05/02 06:37:08;;;;;;;19.63;10.32;;;;;;;9.09;91.94;102283.78;5073305;28;20017;-50
2023/05/02 06:39:33;;;;;;;19.38;9.70;;;;;;;9.14;91.88;102288.53;5073261;28;20085;-51
2023/05/02 06:41:58;;;;;;;16.80;9.93;;;;;;;9.13;91.90;102284.94;5072940;28;20108;-53
2023/05/02 06:44:24;;;;;;;19.35;10.18;;;;;;;9.14;91.70;102289.38;5072543;28;20375;-52
2023/05/02 06:46:49;;;;;;;19.95;10.48;;;;;;;9.14;91.72;102300.41;5072957;28;20058;-53
2023/05/02 06:49:15;;;;;;;21.23;10.15;;;;;;;9.24;91.24;102301.63;5072909;28;20024;-53
2023/05/02 06:51:41;;;;;;;18.55;10.05;;;;;;;9.36;91.54;102310.53;5073034;28;20488;-51
2023/05/02 06:54:06;;;;;;;20.42;10.75;;;;;;;9.38;89.89;102310.31;5071363;28;20468;-53
2023/05/02 06:56:31;;;;;;;21.17;10.73;;;;;;;9.32;89.66;102313.00;5072961;28;20388;-52
2023/05/02 06:58:57;;;;;;;20.17;10.18;;;;;;;9.35;88.86;102315.25;5072909;28;20028;-52
2023/05/02 07:01:22;;;;;;;21.75;10.50;;;;;;;9.35;88.39;102314.44;5072969;28;20098;-55
2023/05/02 07:03:48;;;;;;;22.60;10.38;;;;;;;9.46;87.12;102318.09;5072733;28;20413;-50
2023/05/02 07:06:13;;;;;;;22.25;11.00;;;;;;;9.52;86.86;102317.91;5072908;28;20069;-48
2023/05/02 07:08:38;;;;;;;19.52;10.07;;;;;;;9.56;85.78;102320.97;5072903;28;20020;-51
2023/05/02 07:11:04;;;;;;;19.40;9.70;;;;;;;9.54;85.55;102320.38;5072830;28;20038;-49
2023/05/02 07:13:29;;;;;;;18.92;9.40;;;;;;;9.49;84.20;102334.16;5071217;28;20043;-52
2023/05/02 07:15:55;;;;;;;17.90;10.10;;;;;;;9.48;83.89;102341.59;5072823;28;20523;-53
2023/05/02 07:18:20;;;;;;;21.08;10.18;;;;;;;9.48;83.39;102338.84;5072603;28;20036;-53
2023/05/02 07:20:46;;;;;;;21.35;9.88;;;;;;;9.46;83.36;102354.03;5071271;28;20480;-49
2023/05/02 07:23:11;;;;;;;18.80;9.65;;;;;;;9.51;82.96;102356.81;5071244;28;20037;-55
2023/05/02 07:25:37;;;;;;;17.98;9.68;;;;;;;9.42;82.86;102362.00;5070957;28;20054;-49
2023/05/02 07:28:03;;;;;;;22.92;10.43;;;;;;;9.52;82.16;102364.88;5072578;28;20127;-49
2023/05/02 07:30:28;;;;;;;20.65;10.00;;;;;;;9.61;82.71;102364.38;5072406;28;20103;-49
2023/05/02 07:32:53;;;;;;;23.38;10.30;;;;;;;9.60;80.93;102366.28;5072304;28;20379;-52
2023/05/02 07:35:18;;;;;;;20.02;10.23;;;;;;;9.56;81.41;102364.31;5072347;28;20501;-49
2023/05/02 07:37:44;;;;;;;23.77;10.40;;;;;;;9.60;80.31;102362.72;5070957;28;20029;-52
2023/05/02 07:40:09;;;;;;;22.25;10.10;;;;;;;9.61;77.31;102367.16;5070683;28;20085;-50
2023/05/02 07:42:35;;;;;;;22.15;9.85;;;;;;;9.72;76.02;102368.06;5071931;28;20031;-53
2023/05/02 07:45:00;;;;;;;19.95;9.60;;;;;;;9.72;73.74;102385.50;5072137;28;20490;-51
2023/05/02 07:47:26;;;;;;;15.57;8.88;;;;;;;9.86;72.62;102380.38;5070671;28;20638;-49
2023/05/02 07:49:53;;;;;;;17.63;9.20;;;;;;;9.60;72.91;102385.63;5072084;28;20034;-49
2023/05/02 07:52:19;;;;;;;24.15;10.05;;;;;;;9.62;73.13;102386.22;5072106;28;20032;-52
2023/05/02 07:54:44;;;;;;;19.40;9.35;;;;;;;9.86;73.63;102390.56;5072057;28;20051;-49
2023/05/02 07:57:11;;;;;;;21.83;9.88;;;;;;;9.82;73.66;102379.22;5071162;28;20032;-54
2023/05/02 07:59:37;;;;;;;18.55;9.48;;;;;;;10.07;74.16;102384.13;5071904;28;20025;-51
2023/05/02 08:02:02;;;;;;;19.85;9.95;;;;;;;10.22;72.51;102393.59;5071907;28;20075;-51
2023/05/02 08:04:28;;;;;;;20.77;10.32;;;;;;;10.24;71.43;102395.03;5071942;28;20052;-52
2023/05/02 08:06:53;;;;;;;20.55;9.60;;;;;;;10.26;72.26;102387.28;5071929;28;20032;-49
2023/05/02 08:09:19;;;;;;;18.55;9.50;;;;;;;10.11;70.81;102393.53;5071714;28;20447;-50
2023/05/02 08:11:44;;;;;;;20.42;9.60;;;;;;;10.13;70.91;102393.28;5071889;28;20067;-48
2023/05/02 08:14:10;;;;;;;20.05;9.55;;;;;;;10.36;70.98;102403.13;5071732;28;20020;-47
2023/05/02 08:16:35;;;;;;;20.02;9.32;;;;;;;10.22;68.51;102394.47;5071838;28;20031;-53
2023/05/02 08:19:00;;;;;;;21.27;9.48;;;;;;;10.29;66.90;102400.59;5070470;28;20024;-50
2023/05/02 08:21:26;;;;;;;18.25;9.45;;;;;;;10.53;67.38;102408.50;5071823;28;20090;-50
2023/05/02 08:23:56;;;;;;;18.95;9.38;;;;;;;10.47;65.58;102415.13;5071561;28;20373;-50
2023/05/02 08:26:23;;;;;;;19.90;9.68;;;;;;;10.54;66.97;102403.81;5071560;28;20057;-52
2023/05/02 08:28:50;;;;;;;16.48;8.68;;;;;;;10.70;65.33;102405.56;5072295;28;20072;-51
2023/05/02 08:31:15;;;;;;;16.00;8.68;;;;;;;10.83;64.60;102415.31;5072312;28;20029;-52
2023/05/02 08:33:42;;;;;;;19.08;8.88;;;;;;;10.86;62.29;102425.84;5071424;28;20032;-49
2023/05/02 08:36:12;;;;;;;17.75;8.75;;;;;;;10.93;63.16;102415.34;5071590;28;20056;-52
2023/05/02 08:38:37;;;;;;;16.95;8.63;;;;;;;11.11;62.16;102420.69;5071324;28;20029;-51
2023/05/02 08:41:13;;;;;;;19.77;8.68;;;;;;;11.22;60.97;102430.72;5071331;28;20025;-50
2023/05/02 08:43:39;;;;;;;17.80;8.93;;;;;;;11.35;60.71;102423.84;5070037;28;20032;-49
2023/05/02 08:46:08;;;;;;;16.95;8.40;;;;;;;11.44;60.63;102424.97;5071275;28;20059;-49
2023/05/02 08:48:38;;;;;;;17.33;8.75;;;;;;;11.51;60.03;102431.06;5071316;28;20028;-49
2023/05/02 08:51:08;;;;;;;16.33;8.20;;;;;;;11.51;59.48;102428.28;5069680;28;20081;-51
2023/05/02 08:53:34;;;;;;;16.85;8.82;;;;;;;11.58;58.63;102432.72;5071665;28;20029;-51
2023/05/02 08:56:00;;;;;;;15.27;8.48;;;;;;;11.58;59.17;102422.50;5071107;28;20035;-50
2023/05/02 08:58:26;;;;;;;15.95;8.20;;;;;;;11.80;58.41;102444.44;5071325;28;20028;-49
2023/05/02 09:00:52;;;;;;;18.88;8.57;;;;;;;11.69;55.51;102437.19;5071244;28;20044;-48
2023/05/02 09:03:35;;;;;;;16.35;8.23;;;;;;;11.70;56.21;102444.41;5069724;28;20116;-49
2023/05/02 09:06:14;;;;;;;15.38;8.13;;;;;;;11.64;56.84;102437.19;5071008;28;20020;-48
2023/05/02 09:08:41;;;;;;;17.30;8.32;;;;;;;11.81;57.09;102442.47;5074090;28;20024;-49
2023/05/02 09:11:09;;;;;;;16.30;8.30;;;;;;;11.87;57.65;102449.72;5075019;28;20024;-49
2023/05/02 09:13:38;;;;;;;18.23;8.77;;;;;;;11.74;57.46;102455.78;5074809;28;20020;-53
2023/05/02 09:16:06;;;;;;;16.55;8.60;;;;;;;11.36;58.96;102458.75;5074704;28;20111;-49
2023/05/02 09:18:33;;;;;;;17.83;8.57;;;;;;;11.21;59.40;102465.88;5074855;28;20125;-52
2023/05/02 09:21:00;;;;;;;20.33;8.93;;;;;;;11.24;60.99;102464.53;5074677;28;20107;-49
2023/05/02 09:23:56;;;;;;;21.13;9.13;;;;;;;11.31;62.08;102472.56;5074741;28;20020;-53
2023/05/02 09:26:32;;;;;;;17.35;8.60;;;;;;;11.47;60.74;102474.31;5073898;28;20067;-49
2023/05/02 09:29:03;;;;;;;18.70;9.02;;;;;;;11.66;60.51;102490.44;5073083;28;20081;-51
2023/05/02 09:31:33;;;;;;;20.80;9.07;;;;;;;11.61;60.63;102490.41;5074595;28;20035;-49
2023/05/02 09:34:12;;;;;;;20.67;9.25;;;;;;;11.54;61.24;102485.13;5074349;28;20050;-52
2023/05/02 09:36:42;;;;;;;20.65;9.80;;;;;;;11.52;60.62;102485.41;5074313;28;20035;-56
2023/05/02 09:39:12;;;;;;;17.30;9.13;;;;;;;11.52;61.41;102488.16;5074328;28;20027;-52
2023/05/02 09:41:45;;;;;;;20.23;9.38;;;;;;;11.54;60.25;102490.66;5074579;28;20020;-51
2023/05/02 09:44:13;;;;;;;17.77;9.20;;;;;;;11.57;59.86;102492.91;5074303;28;20035;-50
2023/05/02 09:46:44;;;;;;;20.10;8.88;;;;;;;11.54;60.92;102485.13;5074055;28;20024;-53
2023/05/02 09:49:09;;;;;;;20.45;8.23;;;;;;;11.43;60.86;102486.22;5074251;28;20044;-51
2023/05/02 09:51:35;;;;;;;17.60;8.30;;;;;;;11.22;60.00;102494.44;5074038;28;20036;-50
2023/05/02 09:54:01;;;;;;;16.80;8.18;;;;;;;11.39;60.41;102502.50;5074029;28;20031;-50
2023/05/02 09:56:27;;;;;;;17.58;8.02;;;;;;;11.58;59.39;102500.09;5074114;28;20025;-49
2023/05/02 09:59:15;;;;;;;17.08;8.70;;;;;;;12.02;57.19;102501.63;5074140;28;20029;-48
2023/05/02 10:01:41;;;;;;;18.58;8.75;;;;;;;12.05;58.09;102495.50;5073934;28;20098;-49
2023/05/02 10:04:15;;;;;;;18.65;8.68;;;;;;;12.12;58.33;102496.09;5072490;28;20020;-52
2023/05/02 10:06:42;;;;;;;19.00;8.27;;;;;;;11.79;57.43;102503.75;5073959;28;20024;-52
2023/05/02 10:09:09;;;;;;;17.63;8.30;;;;;;;11.67;58.56;102508.72;5073552;28;20028;-49
2023/05/02 10:11:37;;;;;;;17.60;8.05;;;;;;;11.75;60.40;102502.66;5073617;28;20646;-49
2023/05/02 10:14:05;;;;;;;17.42;8.55;;;;;;;11.77;58.58;102511.50;5073165;28;20032;-53
2023/05/02 10:16:33;;;;;;;18.95;8.40;;;;;;;12.10;56.04;102512.16;5073044;28;20025;-51
2023/05/02 10:19:07;;;;;;;16.60;8.60;;;;;;;12.51;56.91;102497.47;5072293;28;20040;-53
2023/05/02 10:21:34;;;;;;;16.73;8.20;;;;;;;12.92;53.94;102507.66;5073292;28;20086;-51
2023/05/02 10:24:01;;;;;;;17.92;8.50;;;;;;;12.94;53.55;102511.00;5073352;28;20491;-53
2023/05/02 10:26:27;;;;;;;16.60;8.68;;;;;;;12.86;52.36;102503.25;5073136;28;20066;-51
2023/05/02 10:28:55;;;;;;;15.10;8.00;;;;;;;12.70;50.61;102517.16;5073119;28;20032;-52
2023/05/02 10:31:21;;;;;;;16.15;7.80;;;;;;;12.30;51.59;102513.28;5073459;28;20040;-50
2023/05/02 10:33:50;;;;;;;17.33;8.07;;;;;;;12.25;52.80;102516.91;5073239;28;20025;-49
2023/05/02 10:36:20;;;;;;;18.35;8.15;;;;;;;12.21;51.96;102509.41;5073090;28;20028;-49
2023/05/02 10:38:45;;;;;;;18.83;8.48;;;;;;;12.39;50.41;102525.50;5073098;28;20028;-49
2023/05/02 10:41:21;;;;;;;16.05;8.80;;;;;;;12.67;50.71;102511.31;5072934;28;20047;-52
2023/05/02 10:43:48;;;;;;;16.00;7.95;;;;;;;12.92;52.39;102508.50;5071601;28;20149;-49
2023/05/02 10:46:34;;;;;;;17.63;8.43;;;;;;;12.80;52.89;102514.34;5073017;28;20032;-52
2023/05/02 10:49:08;;;;;;;18.30;8.40;;;;;;;12.40;52.90;102526.31;5071435;28;20071;-52
2023/05/02 10:51:35;;;;;;;16.02;8.70;;;;;;;12.20;53.88;102527.97;5055008;28;20383;-48
2023/05/02 10:54:19;;;;;;;18.65;9.02;;;;;;;11.98;53.93;102523.53;5072583;28;20053;-52
2023/05/02 10:57:03;;;;;;;18.10;8.55;;;;;;;12.15;54.25;102508.56;5071528;28;20127;-49
2023/05/02 10:59:29;;;;;;;;;;;;;;;12.52;54.36;102506.59;5073280;28;20032;-52
2023/05/02 11:01:56;;;;;;;18.42;8.85;;;;;;;12.51;52.54;102508.56;5072880;28;19916;-51
2023/05/02 11:04:22;;;;;;;17.58;7.97;;;;;;;12.47;50.10;102521.31;5072600;28;20025;-50
2023/05/02 11:07:00;;;;;;;17.58;8.60;;;;;;;12.36;51.76;102526.06;5072707;28;20024;-52
2023/05/02 11:09:28;;;;;;;19.45;7.88;;;;;;;12.40;49.68;102531.88;5072534;28;20099;-50
2023/05/02 11:11:56;;;;;;;18.27;8.60;;;;;;;12.45;49.16;102540.22;5072434;28;20459;-51
2023/05/02 11:14:24;;;;;;;14.75;7.80;;;;;;;12.57;48.99;102535.19;5072518;28;20052;-49
2023/05/02 11:17:08;;;;;;;13.70;7.93;;;;;;;12.76;50.26;102529.06;5072425;28;20066;-52
2023/05/02 11:19:42;;;;;;;17.30;8.50;;;;;;;13.05;49.97;102531.25;5072452;28;20472;-51